createdAt,value
2019-06-08T00:01:22.970Z,95887.55
2019-06-08T00:03:49.076Z,95881.94
2019-06-08T00:06:15.078Z,95884.03
2019-06-08T00:08:41.219Z,95883.98
2019-06-08T00:11:07.333Z,95886.89
2019-06-08T00:13:33.323Z,95897.06
2019-06-08T00:15:59.342Z,95890.33
2019-06-08T00:18:25.354Z,95886.31
2019-06-08T00:20:51.545Z,95884.77
2019-06-08T00:23:17.732Z,95884.98
2019-06-08T00:25:43.647Z,95890.88
2019-06-08T00:28:09.770Z,95894.03
2019-06-08T00:30:37.157Z,95889.97
2019-06-08T00:33:03.405Z,95893.73
2019-06-08T00:35:29.479Z,95887.11
2019-06-08T00:37:55.498Z,95884.44
2019-06-08T00:40:21.695Z,95886.05
2019-06-08T00:42:47.708Z,95887.44
2019-06-08T00:45:15.259Z,95894.06
2019-06-08T00:47:47.881Z,95889.48
2019-06-08T00:50:10.393Z,95880.44
2019-06-08T00:52:36.602Z,95892.20
2019-06-08T00:55:04.520Z,95891.39
2019-06-08T00:57:30.650Z,95887.38
2019-06-08T00:59:56.589Z,95884.71
2019-06-08T01:02:22.728Z,95887.11
2019-06-08T01:04:48.880Z,95884.44
2019-06-08T01:07:14.989Z,95887.38
2019-06-08T01:09:41.029Z,95884.71
2019-06-08T01:12:07.134Z,95882.04
2019-06-08T01:14:33.268Z,95888.45
2019-06-08T01:16:59.378Z,95879.37
2019-06-08T01:19:25.483Z,95884.47
2019-06-08T01:21:51.487Z,95880.98
2019-06-08T01:24:17.503Z,95880.98
2019-06-08T01:26:43.538Z,95884.89
2019-06-08T01:29:09.549Z,95890.30
2019-06-08T01:31:35.679Z,95889.05
2019-06-08T01:34:01.825Z,95884.28
2019-06-08T01:36:29.121Z,95893.91
2019-06-08T01:38:55.277Z,95897.20
2019-06-08T01:41:21.430Z,95896.41
2019-06-08T01:43:47.433Z,95899.24
2019-06-08T01:46:13.481Z,95897.64
2019-06-08T01:48:39.890Z,95905.16
2019-06-08T01:51:05.789Z,95905.00
2019-06-08T01:53:33.021Z,95906.70
2019-06-08T01:55:59.239Z,95906.45
2019-06-08T01:58:25.417Z,95905.17
2019-06-08T02:00:51.561Z,95900.95
2019-06-08T02:03:18.074Z,95909.29
2019-06-08T02:05:44.142Z,95911.20
2019-06-08T02:08:10.281Z,95900.51
2019-06-08T02:10:36.408Z,95905.03
2019-06-08T02:13:02.623Z,95909.59
2019-06-08T02:15:29.146Z,95911.20
2019-06-08T02:17:55.247Z,95912.84
2019-06-08T02:20:21.486Z,95913.88
2019-06-08T02:22:47.656Z,95924.81
2019-06-08T02:25:15.563Z,95916.27
2019-06-08T02:27:41.767Z,95919.22
2019-06-08T02:30:10.792Z,95917.88
2019-06-08T02:32:37.424Z,95919.52
2019-06-08T02:35:04.930Z,95916.27
2019-06-08T02:37:31.033Z,95918.13
2019-06-08T02:39:56.940Z,95915.78
2019-06-08T02:42:22.943Z,95916.36
2019-06-08T02:44:48.857Z,95911.86
2019-06-08T02:47:16.418Z,95909.20
2019-06-08T02:49:42.576Z,95911.66
2019-06-08T02:52:09.587Z,95910.33
2019-06-08T02:54:37.843Z,95924.45
2019-06-08T02:57:04.387Z,95920.45
2019-06-08T02:59:35.667Z,95920.45
2019-06-08T03:02:02.642Z,95925.24
2019-06-08T03:04:32.903Z,95919.90
2019-06-08T03:07:02.369Z,95923.06
2019-06-08T03:09:30.545Z,95922.27
2019-06-08T03:11:59.565Z,95918.27
2019-06-08T03:14:26.037Z,95923.61
2019-06-08T03:16:52.194Z,95927.83
2019-06-08T03:19:22.301Z,95926.50
2019-06-08T03:21:45.942Z,95926.47
2019-06-08T03:24:11.866Z,95929.91
2019-06-08T03:26:39.706Z,95930.42
2019-06-08T03:29:06.009Z,95938.98
2019-06-08T03:31:36.180Z,95928.88
2019-06-08T03:33:59.844Z,95929.72
2019-06-08T03:36:25.984Z,95936.97
2019-06-08T03:38:51.981Z,95934.58
2019-06-08T03:41:18.085Z,95931.14
2019-06-08T03:43:44.119Z,95937.57
2019-06-08T03:46:10.014Z,95937.84
2019-06-08T03:48:37.205Z,95941.34
2019-06-08T03:51:04.035Z,95940.57
2019-06-08T03:53:30.045Z,95943.82
2019-06-08T03:55:56.193Z,95940.33
2019-06-08T03:58:22.226Z,95945.42
2019-06-08T04:00:49.186Z,95950.45
2019-06-08T04:03:15.478Z,95953.63
2019-06-08T04:05:42.702Z,95948.20
2019-06-08T04:08:09.428Z,95952.63
2019-06-08T04:10:35.338Z,95955.48
2019-06-08T04:13:01.253Z,95964.23
2019-06-08T04:15:27.253Z,95969.33
2019-06-08T04:17:53.367Z,95964.66
2019-06-08T04:20:19.368Z,95968.42
2019-06-08T04:22:47.131Z,95972.03
2019-06-08T04:25:13.529Z,95970.91
2019-06-08T04:27:40.459Z,95973.22
2019-06-08T04:30:07.760Z,95977.37
2019-06-08T04:32:33.880Z,95976.22
2019-06-08T04:34:59.918Z,95969.09
2019-06-08T04:37:25.907Z,95977.34
2019-06-08T04:39:52.007Z,95978.11
2019-06-08T04:42:18.017Z,95978.56
2019-06-08T04:44:44.637Z,95979.44
2019-06-08T04:47:10.945Z,95982.20
2019-06-08T04:49:38.495Z,95980.32
2019-06-08T04:52:04.661Z,95980.11
2019-06-08T04:54:30.969Z,95981.11
2019-06-08T04:56:56.954Z,95989.30
2019-06-08T04:59:23.057Z,95993.38
2019-06-08T05:01:49.371Z,95987.30
2019-06-08T05:04:15.574Z,95981.66
2019-06-08T05:06:42.776Z,95978.67
2019-06-08T05:09:09.088Z,95982.61
2019-06-08T05:11:36.387Z,95990.52
2019-06-08T05:14:02.908Z,95994.64
2019-06-08T05:16:28.950Z,95996.38
2019-06-08T05:18:54.862Z,95997.85
2019-06-08T05:21:20.903Z,96002.27
2019-06-08T05:23:51.177Z,96006.11
2019-06-08T05:26:14.705Z,96001.41
2019-06-08T05:28:41.244Z,96014.86
2019-06-08T05:31:07.329Z,96016.22
2019-06-08T05:33:34.379Z,96021.82
2019-06-08T05:36:00.519Z,96019.81
2019-06-08T05:38:26.559Z,96027.84
2019-06-08T05:40:52.669Z,96019.48
2019-06-08T05:43:18.829Z,96023.23
2019-06-08T05:45:45.718Z,96036.30
2019-06-08T05:48:11.808Z,96034.97
2019-06-08T05:50:53.103Z,96033.38
2019-06-08T05:53:05.756Z,96036.19
2019-06-08T05:55:31.968Z,96032.06
2019-06-08T05:57:57.876Z,96039.20
2019-06-08T06:00:23.983Z,96044.63
2019-06-08T06:02:50.990Z,96044.45
2019-06-08T06:05:17.223Z,96046.73
2019-06-08T06:07:44.659Z,96043.88
2019-06-08T06:10:12.965Z,96047.59
2019-06-08T06:12:39.071Z,96037.95
2019-06-08T06:15:05.777Z,96051.47
2019-06-08T06:17:31.928Z,96049.45
2019-06-08T06:19:57.939Z,96052.24
2019-06-08T06:22:23.844Z,96052.87
2019-06-08T06:24:49.850Z,96050.83
2019-06-08T06:27:15.997Z,96059.17
2019-06-08T06:29:43.399Z,96051.41
2019-06-08T06:32:09.763Z,96050.59
2019-06-08T06:34:35.904Z,96048.80
2019-06-08T06:37:02.332Z,96053.70
2019-06-08T06:39:28.474Z,96044.13
2019-06-08T06:41:54.479Z,96053.86
2019-06-08T06:44:20.593Z,96055.08
2019-06-08T06:46:47.930Z,96054.06
2019-06-08T06:49:14.229Z,96056.58
2019-06-08T06:51:40.340Z,96054.52
2019-06-08T06:54:06.476Z,96051.16
2019-06-08T06:56:32.596Z,96046.44
2019-06-08T06:58:58.736Z,96051.90
2019-06-08T07:01:24.845Z,96043.97
2019-06-08T07:03:52.111Z,96047.22
2019-06-08T07:06:18.274Z,96049.74
2019-06-08T07:09:21.580Z,96042.28
2019-06-08T07:11:48.787Z,96046.41
2019-06-08T07:14:15.023Z,96040.58
2019-06-08T07:16:41.051Z,96037.98
2019-06-08T07:19:07.161Z,96043.69
2019-06-08T07:21:41.796Z,96039.73
2019-06-08T07:24:01.177Z,96039.56
2019-06-08T07:26:27.308Z,96052.79
2019-06-08T07:28:54.178Z,96049.33
2019-06-08T07:31:21.381Z,96041.83
2019-06-08T07:33:48.701Z,96043.20
2019-06-08T07:36:15.484Z,96042.42
2019-06-08T07:38:41.602Z,96040.80
2019-06-08T07:41:07.713Z,96040.05
2019-06-08T07:43:33.714Z,96041.95
2019-06-08T07:45:59.614Z,96041.41
2019-06-08T07:48:25.633Z,96043.83
2019-06-08T07:50:52.255Z,96045.42
2019-06-08T07:53:18.345Z,96043.28
2019-06-08T07:55:45.361Z,96039.48
2019-06-08T07:58:11.787Z,96036.77
2019-06-08T08:00:37.897Z,96041.05
2019-06-08T08:03:03.999Z,96043.99
2019-06-08T08:05:30.112Z,96046.66
2019-06-08T08:07:56.921Z,96038.23
2019-06-08T08:10:23.053Z,96043.59
2019-06-08T08:12:50.834Z,96042.47
2019-06-08T08:15:17.721Z,96031.38
2019-06-08T08:17:43.876Z,96035.08
2019-06-08T08:20:10.267Z,96038.56
2019-06-08T08:22:38.157Z,96040.41
2019-06-08T08:25:05.265Z,96040.63
2019-06-08T08:27:31.254Z,96040.88
2019-06-08T08:30:00.042Z,96047.09
2019-06-08T08:32:25.074Z,96038.80
2019-06-08T08:34:52.128Z,96042.48
2019-06-08T08:37:18.331Z,96043.50
2019-06-08T08:39:44.435Z,96045.95
2019-06-08T08:42:10.585Z,96048.38
2019-06-08T08:44:37.988Z,96049.69
2019-06-08T08:47:04.356Z,96042.38
2019-06-08T08:49:30.503Z,96046.53
2019-06-08T08:51:59.023Z,96053.72
2019-06-08T08:54:24.765Z,96054.48
2019-06-08T08:56:52.913Z,96044.73
2019-06-08T08:59:18.631Z,96056.14
2019-06-08T09:01:44.769Z,96056.14
2019-06-08T09:04:10.906Z,96054.05
2019-06-08T09:06:38.074Z,96054.05
2019-06-08T09:09:05.535Z,96060.17
2019-06-08T09:11:31.466Z,96057.22
2019-06-08T09:14:02.506Z,96056.36
2019-06-08T09:16:25.602Z,96058.23
2019-06-08T09:18:52.643Z,96054.94
2019-06-08T09:21:19.800Z,96042.52
2019-06-08T09:23:48.424Z,96059.10
2019-06-08T09:26:13.943Z,96056.33
2019-06-08T09:28:40.047Z,96051.14
2019-06-08T09:31:08.266Z,96052.18
2019-06-08T09:33:34.222Z,96054.67
2019-06-08T09:36:02.813Z,96055.39
2019-06-08T09:38:28.780Z,96055.59
2019-06-08T09:40:55.000Z,96058.02
2019-06-08T09:43:21.040Z,96058.83
2019-06-08T09:45:48.314Z,96059.52
2019-06-08T09:48:14.611Z,96061.84
2019-06-08T09:50:40.641Z,96053.02
2019-06-08T09:53:23.029Z,96060.75
2019-06-08T09:55:34.769Z,96063.30
2019-06-08T09:58:06.240Z,96063.88
2019-06-08T10:00:29.426Z,96073.31
2019-06-08T10:02:59.355Z,96080.01
2019-06-08T10:05:23.940Z,96077.91
2019-06-08T10:07:50.048Z,96076.73
2019-06-08T10:10:18.140Z,96086.97
2019-06-08T10:12:44.308Z,96089.83
2019-06-08T10:15:11.087Z,96091.26
2019-06-08T10:17:37.733Z,96085.56
2019-06-08T10:20:07.389Z,96083.97
2019-06-08T10:22:32.658Z,96082.86
2019-06-08T10:25:03.707Z,96086.92
2019-06-08T10:27:28.337Z,96106.16
2019-06-08T10:29:55.228Z,96093.62
2019-06-08T10:32:23.397Z,96091.42
2019-06-08T10:34:49.406Z,96087.34
2019-06-08T10:37:15.559Z,96093.82
2019-06-08T10:39:41.682Z,96091.87
2019-06-08T10:42:11.041Z,96088.34
2019-06-08T10:44:38.070Z,96087.80
2019-06-08T10:47:06.333Z,96092.34
2019-06-08T10:49:31.972Z,96092.31
2019-06-08T10:52:00.370Z,96100.13
2019-06-08T10:54:27.738Z,96100.83
2019-06-08T10:56:54.087Z,96094.19
2019-06-08T10:59:20.235Z,96090.27
2019-06-08T11:01:46.323Z,96095.25
2019-06-08T11:04:12.497Z,96098.06
2019-06-08T11:06:40.269Z,96091.63
2019-06-08T11:09:12.331Z,96095.00
2019-06-08T11:11:35.158Z,96090.23
2019-06-08T11:14:03.789Z,96092.22
2019-06-08T11:16:29.215Z,96089.79
2019-06-08T11:18:55.324Z,96082.33
2019-06-08T11:21:21.455Z,96086.00
2019-06-08T11:24:04.762Z,96075.74
2019-06-08T11:26:20.884Z,96078.14
2019-06-08T11:28:43.931Z,96082.55
2019-06-08T11:31:15.773Z,96079.83
2019-06-08T11:33:38.996Z,96082.51
2019-06-08T11:36:08.005Z,96072.62
2019-06-08T11:38:33.351Z,96073.95
2019-06-08T11:41:02.064Z,96077.09
2019-06-08T11:43:28.685Z,96070.55
2019-06-08T11:45:54.764Z,96079.33
2019-06-08T11:48:20.770Z,96079.94
2019-06-08T11:50:48.903Z,96074.91
2019-06-08T11:53:17.731Z,96069.19
2019-06-08T11:55:42.911Z,96069.77
2019-06-08T11:58:11.859Z,96064.17
2019-06-08T12:00:51.372Z,96055.58
2019-06-08T12:03:17.506Z,96052.73
2019-06-08T12:05:43.525Z,96057.17
2019-06-08T12:08:10.604Z,96060.23
2019-06-08T12:10:38.231Z,96058.27
2019-06-08T12:13:04.859Z,96060.73
2019-06-08T12:15:31.002Z,96056.93
2019-06-08T12:17:58.654Z,96061.25
2019-06-08T12:20:24.939Z,96062.14
2019-06-08T12:22:50.955Z,96058.43
2019-06-08T12:25:16.960Z,96064.92
2019-06-08T12:27:42.863Z,96064.11
2019-06-08T12:30:18.691Z,96067.84
2019-06-08T12:32:37.128Z,96064.44
2019-06-08T12:35:05.157Z,96072.09
2019-06-08T12:37:31.339Z,96077.22
2019-06-08T12:39:57.925Z,96077.20
2019-06-08T12:42:25.330Z,96077.46
2019-06-08T12:44:51.443Z,96075.47
2019-06-08T12:47:21.466Z,96077.59
2019-06-08T12:49:45.293Z,96071.17
2019-06-08T12:52:12.922Z,96077.91
2019-06-08T12:54:39.297Z,96077.74
2019-06-08T12:57:05.436Z,96085.07
2019-06-08T12:59:31.555Z,96086.73
2019-06-08T13:01:58.645Z,96086.92
2019-06-08T13:04:24.725Z,96079.78
2019-06-08T13:06:50.722Z,96083.81
2019-06-08T13:09:18.881Z,96076.80
2019-06-08T13:11:44.598Z,96085.33
2019-06-08T13:14:11.839Z,96081.98
2019-06-08T13:16:38.553Z,96081.48
2019-06-08T13:19:04.563Z,96073.26
2019-06-08T13:21:35.018Z,96080.19
2019-06-08T13:23:58.610Z,96073.47
2019-06-08T13:26:27.902Z,96079.55
2019-06-08T13:28:52.448Z,96076.74
2019-06-08T13:31:22.110Z,96078.49
2019-06-08T13:33:48.386Z,96076.13
2019-06-08T13:36:14.404Z,96079.20
2019-06-08T13:38:40.322Z,96079.54
2019-06-08T13:41:08.628Z,96069.28
2019-06-08T13:43:34.352Z,96071.67
2019-06-08T13:46:00.417Z,96074.02
2019-06-08T13:48:26.961Z,96067.61
2019-06-08T13:50:52.966Z,96075.42
2019-06-08T13:53:24.407Z,96080.23
2019-06-08T13:55:53.388Z,96080.63
2019-06-08T13:58:15.195Z,96082.66
2019-06-08T14:00:41.343Z,96074.33
2019-06-08T14:03:08.463Z,96076.37
2019-06-08T14:05:34.663Z,96072.34
2019-06-08T14:08:00.767Z,96076.69
2019-06-08T14:10:39.076Z,96077.09
2019-06-08T14:13:05.871Z,96075.77
2019-06-08T14:15:31.878Z,96086.19
2019-06-08T14:17:58.626Z,96090.20
2019-06-08T14:20:28.360Z,96083.94
2019-06-08T14:22:53.024Z,96091.89
2019-06-08T14:25:21.524Z,96092.83
2019-06-08T14:27:47.680Z,96092.05
2019-06-08T14:30:13.848Z,96091.17
2019-06-08T14:32:39.849Z,96091.17
2019-06-08T14:35:08.421Z,96092.22
2019-06-08T14:37:33.905Z,96093.04
2019-06-08T14:40:00.010Z,96095.31
2019-06-08T14:42:29.864Z,96093.55
2019-06-08T14:44:53.952Z,96097.39
2019-06-08T14:47:20.917Z,96091.91
2019-06-08T14:49:48.800Z,96094.08
2019-06-08T14:52:15.164Z,96095.02
2019-06-08T14:54:41.277Z,96082.23
2019-06-08T14:57:07.851Z,96093.39
2019-06-08T14:59:34.030Z,96092.05
2019-06-08T15:01:59.963Z,96093.02
2019-06-08T15:04:32.295Z,96101.63
2019-06-08T15:06:54.691Z,96093.33
2019-06-08T15:09:21.326Z,96082.12
2019-06-08T15:11:48.052Z,96091.02
2019-06-08T15:14:14.269Z,96085.13
2019-06-08T15:16:41.845Z,96088.46
2019-06-08T15:19:08.196Z,96088.27
2019-06-08T15:21:34.315Z,96087.03
2019-06-08T15:24:00.437Z,96083.84
2019-06-08T15:26:32.770Z,96085.77
2019-06-08T15:28:54.502Z,96080.47
2019-06-08T15:31:21.122Z,96076.05
2019-06-08T15:33:48.198Z,96077.89
2019-06-08T15:36:14.422Z,96075.97
2019-06-08T15:38:40.625Z,96077.98
2019-06-08T15:41:07.786Z,96077.55
2019-06-08T15:43:37.079Z,96071.94
2019-06-08T15:46:02.021Z,96079.77
2019-06-08T15:48:29.417Z,96085.53
2019-06-08T15:50:58.446Z,96084.02
2019-06-08T15:53:24.369Z,96078.03
2019-06-08T15:55:51.560Z,96080.30
2019-06-08T15:58:18.266Z,96075.17
2019-06-08T16:00:44.293Z,96083.13
2019-06-08T16:03:10.304Z,96082.13
2019-06-08T16:05:36.336Z,96082.84
2019-06-08T16:08:02.414Z,96089.17
2019-06-08T16:10:28.418Z,96088.78
2019-06-08T16:12:54.328Z,96089.50
2019-06-08T16:15:20.432Z,96090.54
2019-06-08T16:17:46.456Z,96088.20
2019-06-08T16:20:12.575Z,96092.84
2019-06-08T16:22:38.575Z,96095.02
2019-06-08T16:25:04.981Z,96094.23
2019-06-08T16:27:32.135Z,96097.26
2019-06-08T16:29:58.295Z,96098.95
2019-06-08T16:32:24.425Z,96098.79
2019-06-08T16:34:50.474Z,96107.30
2019-06-08T16:37:16.592Z,96113.79
2019-06-08T16:39:42.488Z,96120.28
2019-06-08T16:42:08.625Z,96128.45
2019-06-08T16:44:34.869Z,96132.03
2019-06-08T16:47:01.250Z,96135.84
2019-06-08T16:49:27.298Z,96140.23
2019-06-08T16:51:53.406Z,96140.15
2019-06-08T16:54:19.413Z,96144.39
2019-06-08T16:56:45.444Z,96148.91
2019-06-08T16:59:11.587Z,96148.25
2019-06-08T17:01:38.919Z,96143.36
2019-06-08T17:04:05.367Z,96142.14
2019-06-08T17:06:31.424Z,96150.15
2019-06-08T17:08:57.434Z,96145.25
2019-06-08T17:11:23.606Z,96146.51
2019-06-08T17:13:49.609Z,96148.17
2019-06-08T17:16:15.652Z,96148.45
2019-06-08T17:18:41.758Z,96145.74
2019-06-08T17:21:07.892Z,96143.47
2019-06-08T17:23:34.417Z,96142.61
2019-06-08T17:26:00.635Z,96143.30
2019-06-08T17:28:26.752Z,96135.11
2019-06-08T17:30:52.782Z,96139.91
2019-06-08T17:33:18.920Z,96141.52
2019-06-08T17:35:45.029Z,96139.18
2019-06-08T17:38:11.142Z,96145.53
2019-06-08T17:40:38.086Z,96151.10
2019-06-08T17:43:04.371Z,96159.11
2019-06-08T17:45:30.268Z,96172.21
2019-06-08T17:47:56.370Z,96188.16
2019-06-08T17:50:22.478Z,96192.50
2019-06-08T17:52:48.498Z,96219.66
2019-06-08T17:55:14.928Z,96231.73
2019-06-08T17:57:48.521Z,96230.71
2019-06-08T18:00:11.430Z,96253.83
2019-06-08T18:02:40.280Z,96261.63
2019-06-08T18:05:07.047Z,96244.76
2019-06-08T18:07:33.743Z,96273.75
2019-06-08T18:10:00.136Z,96272.00
2019-06-08T18:12:27.116Z,96272.00
2019-06-08T18:14:53.295Z,96276.63
2019-06-08T18:17:19.437Z,96287.73
2019-06-08T18:19:47.096Z,96292.29
2019-06-08T18:22:15.283Z,96292.61
2019-06-08T18:24:42.326Z,96291.58
2019-06-08T18:27:09.522Z,96286.77
2019-06-08T18:29:39.144Z,96285.77
2019-06-08T18:32:03.635Z,96285.77
2019-06-08T18:34:29.540Z,96284.19
2019-06-08T18:36:57.855Z,96296.89
2019-06-08T18:39:24.690Z,96295.25
2019-06-08T18:41:50.603Z,96302.61
2019-06-08T18:44:17.384Z,96306.13
2019-06-08T18:46:43.605Z,96311.25
2019-06-08T18:49:09.506Z,96319.37
2019-06-08T18:51:37.748Z,96320.75
2019-06-08T18:54:11.770Z,96338.84
2019-06-08T18:56:31.516Z,96351.33
2019-06-08T18:58:58.304Z,96364.25
2019-06-08T19:01:24.586Z,96377.77
2019-06-08T19:03:52.543Z,96381.00
2019-06-08T19:06:19.034Z,96386.16
2019-06-08T19:08:49.202Z,96394.28
2019-06-08T19:11:13.608Z,96393.25
2019-06-08T19:13:40.109Z,96402.41
2019-06-08T19:16:07.587Z,96414.84
2019-06-08T19:18:33.678Z,96434.30
2019-06-08T19:21:00.734Z,96442.39
2019-06-08T19:23:27.988Z,96443.17
2019-06-08T19:25:54.142Z,96449.90
2019-06-08T19:28:35.169Z,96445.03
2019-06-08T19:30:51.381Z,96446.92
2019-06-08T19:33:17.966Z,96447.45
2019-06-08T19:35:44.318Z,96466.32
2019-06-08T19:38:10.746Z,96464.68
2019-06-08T19:40:37.922Z,96464.69
2019-06-08T19:43:04.909Z,96464.41
2019-06-08T19:45:30.849Z,96458.47
2019-06-08T19:47:57.787Z,96456.30
2019-06-08T19:50:23.980Z,96463.33
2019-06-08T19:52:53.142Z,96458.23
2019-06-08T19:55:18.272Z,96464.97
2019-06-08T19:57:46.378Z,96475.23
2019-06-08T20:00:12.710Z,96493.05
2019-06-08T20:02:38.727Z,96504.10
2019-06-08T20:05:07.695Z,96508.16
2019-06-08T20:07:33.109Z,96527.59
2019-06-08T20:09:59.118Z,96533.50
2019-06-08T20:12:28.145Z,96531.81
2019-06-08T20:14:54.448Z,96543.88
2019-06-08T20:17:20.560Z,96547.36
2019-06-08T20:19:48.016Z,96548.44
2019-06-08T20:22:14.709Z,96539.84
2019-06-08T20:24:42.413Z,96539.60
2019-06-08T20:27:10.265Z,96547.95
2019-06-08T20:29:38.153Z,96552.00
2019-06-08T20:32:04.444Z,96564.90
2019-06-08T20:34:30.454Z,96568.92
2019-06-08T20:36:57.694Z,96564.23
2019-06-08T20:39:24.481Z,96566.90
2019-06-08T20:41:51.898Z,96574.72
2019-06-08T20:44:18.427Z,96571.50
2019-06-08T20:46:44.430Z,96572.88
2019-06-08T20:49:10.556Z,96565.02
2019-06-08T20:51:37.452Z,96570.97
2019-06-08T20:54:03.779Z,96572.52
2019-06-08T20:56:29.886Z,96579.75
2019-06-08T20:58:57.416Z,96563.25
2019-06-08T21:01:23.590Z,96555.92
2019-06-08T21:03:51.256Z,96554.47
2019-06-08T21:06:17.618Z,96553.12
2019-06-08T21:08:44.027Z,96553.20
2019-06-08T21:11:10.250Z,96552.94
2019-06-08T21:13:37.469Z,96551.85
2019-06-08T21:16:03.776Z,96556.16
2019-06-08T21:18:30.697Z,96557.47
2019-06-08T21:20:58.077Z,96557.35
2019-06-08T21:23:24.379Z,96559.75
2019-06-08T21:25:53.545Z,96558.44
2019-06-08T21:28:18.413Z,96561.69
2019-06-08T21:30:46.470Z,96551.70
2019-06-08T21:33:12.549Z,96555.97
2019-06-08T21:35:38.607Z,96550.28
2019-06-08T21:38:20.251Z,96567.44
2019-06-08T21:40:32.598Z,96564.41
2019-06-08T21:43:01.120Z,96559.49
2019-06-08T21:45:27.619Z,96564.53
2019-06-08T21:47:54.501Z,96561.52
2019-06-08T21:50:20.658Z,96565.73
2019-06-08T21:52:48.666Z,96565.94
2019-06-08T21:55:14.628Z,96579.54
2019-06-08T21:57:40.660Z,96574.61
2019-06-08T22:00:26.915Z,96575.08
2019-06-08T22:02:37.590Z,96574.47
2019-06-08T22:05:08.288Z,96587.31
2019-06-08T22:07:34.533Z,96582.35
2019-06-08T22:10:00.668Z,96586.84
2019-06-08T22:12:26.676Z,96583.59
2019-06-08T22:14:52.810Z,96587.32
2019-06-08T22:17:19.022Z,96588.97
2019-06-08T22:19:47.365Z,96592.16
2019-06-08T22:22:13.133Z,96587.95
2019-06-08T22:24:39.141Z,96591.14
2019-06-08T22:27:07.205Z,96588.95
2019-06-08T22:29:33.396Z,96595.80
2019-06-08T22:31:59.772Z,96595.48
2019-06-08T22:34:28.054Z,96595.23
2019-06-08T22:36:54.256Z,96599.45
2019-06-08T22:39:20.423Z,96598.77
2019-06-08T22:41:47.832Z,96604.61
2019-06-08T22:44:13.888Z,96606.88
2019-06-08T22:46:39.836Z,96610.13
2019-06-08T22:49:08.003Z,96611.69
2019-06-08T22:51:33.970Z,96609.83
2019-06-08T22:54:02.030Z,96614.88
2019-06-08T22:56:28.104Z,96604.05
2019-06-08T22:58:55.786Z,96604.71
2019-06-08T23:01:22.050Z,96599.26
2019-06-08T23:03:48.061Z,96599.50
2019-06-08T23:06:14.181Z,96597.34
2019-06-08T23:08:40.199Z,96592.47
2019-06-08T23:11:08.464Z,96587.67
2019-06-08T23:13:34.344Z,96591.39
2019-06-08T23:16:02.536Z,96598.90
2019-06-08T23:18:28.265Z,96599.66
2019-06-08T23:20:55.600Z,96604.77
2019-06-08T23:23:22.333Z,96601.11
2019-06-08T23:25:48.341Z,96597.64
2019-06-08T23:28:14.459Z,96592.03
2019-06-08T23:30:40.584Z,96587.00
2019-06-08T23:33:11.025Z,96588.25
2019-06-08T23:35:51.364Z,96593.34
2019-06-08T23:38:02.979Z,96590.11
2019-06-08T23:40:29.253Z,96594.34
2019-06-08T23:42:55.257Z,96596.38
2019-06-08T23:45:21.394Z,96591.56
2019-06-08T23:47:48.065Z,96591.02
2019-06-08T23:50:14.427Z,96592.60
2019-06-08T23:52:40.570Z,96595.83
2019-06-08T23:55:10.590Z,96601.65
2019-06-08T23:57:35.031Z,96602.86
